createdAt,value
2017-12-10T00:00:10.249Z,95.30
2017-12-10T00:02:37.721Z,95.30
2017-12-10T00:05:05.186Z,95.30
2017-12-10T00:07:32.659Z,95.10
2017-12-10T00:10:00.147Z,95.20
2017-12-10T00:12:28.377Z,95.20
2017-12-10T00:14:55.854Z,95.10
2017-12-10T00:17:23.315Z,95.50
2017-12-10T00:19:50.876Z,95.30
2017-12-10T00:22:18.384Z,95.20
2017-12-10T00:24:45.868Z,95.00
2017-12-10T00:27:13.342Z,94.80
2017-12-10T00:29:40.832Z,94.80
2017-12-10T00:32:08.311Z,95.10
2017-12-10T00:34:35.782Z,95.00
2017-12-10T00:37:03.279Z,95.10
2017-12-10T00:39:30.806Z,94.40
2017-12-10T00:41:58.275Z,94.60
2017-12-10T00:44:25.763Z,94.60
2017-12-10T00:46:53.317Z,94.20
2017-12-10T00:49:20.768Z,94.40
2017-12-10T00:51:48.285Z,94.10
2017-12-10T00:54:15.770Z,94.20
2017-12-10T00:56:43.258Z,94.20
2017-12-10T00:59:10.791Z,94.30
2017-12-10T01:01:38.300Z,94.70
2017-12-10T01:04:05.794Z,94.70
2017-12-10T01:06:33.294Z,94.80
2017-12-10T01:09:00.775Z,94.80
2017-12-10T01:11:29.007Z,94.80
2017-12-10T01:13:56.682Z,94.80
2017-12-10T01:16:24.151Z,94.60
2017-12-10T01:18:51.642Z,94.70
2017-12-10T01:21:19.871Z,94.50
2017-12-10T01:23:47.535Z,94.50
2017-12-10T01:26:15.071Z,94.50
2017-12-10T01:28:42.532Z,94.30
2017-12-10T01:31:10.004Z,94.40
2017-12-10T01:33:37.490Z,94.30
2017-12-10T01:36:05.005Z,94.20
2017-12-10T01:38:32.664Z,94.60
2017-12-10T01:41:00.130Z,94.60
2017-12-10T01:43:27.677Z,94.50
2017-12-10T01:45:55.192Z,94.60
2017-12-10T01:48:22.738Z,94.60
2017-12-10T01:50:50.219Z,94.70
2017-12-10T01:53:18.478Z,94.80
2017-12-10T01:55:45.947Z,94.80
2017-12-10T01:58:14.195Z,94.40
2017-12-10T02:00:41.682Z,94.40
2017-12-10T02:03:09.926Z,94.40
2017-12-10T02:05:38.235Z,94.40
2017-12-10T02:08:06.545Z,94.40
2017-12-10T02:10:34.021Z,94.00
2017-12-10T02:13:01.521Z,94.10
2017-12-10T02:15:28.987Z,94.00
2017-12-10T02:17:56.462Z,94.00
2017-12-10T02:20:24.719Z,94.20
2017-12-10T02:22:52.178Z,94.10
2017-12-10T02:25:20.420Z,94.10
2017-12-10T02:27:47.896Z,93.80
2017-12-10T02:30:15.372Z,94.00
2017-12-10T02:32:42.857Z,94.40
2017-12-10T02:35:11.113Z,94.70
2017-12-10T02:37:38.566Z,94.70
2017-12-10T02:40:06.073Z,95.30
2017-12-10T02:42:33.530Z,95.10
2017-12-10T02:45:01.017Z,95.10
2017-12-10T02:47:29.292Z,95.50
2017-12-10T02:49:56.945Z,95.50
2017-12-10T02:52:24.418Z,95.30
2017-12-10T02:54:51.915Z,95.30
2017-12-10T02:57:20.149Z,95.40
2017-12-10T02:59:47.630Z,95.70
2017-12-10T03:02:15.113Z,95.50
2017-12-10T03:04:42.626Z,95.60
2017-12-10T03:07:10.099Z,95.20
2017-12-10T03:09:37.557Z,95.20
2017-12-10T03:12:05.029Z,95.10
2017-12-10T03:14:33.306Z,95.20
2017-12-10T03:17:01.588Z,95.10
2017-12-10T03:19:29.821Z,94.90
2017-12-10T03:21:57.298Z,94.90
2017-12-10T03:24:24.778Z,94.40
2017-12-10T03:26:53.000Z,94.00
2017-12-10T03:29:20.515Z,94.00
2017-12-10T03:31:48.730Z,93.10
2017-12-10T03:34:16.213Z,93.10
2017-12-10T03:36:43.787Z,93.30
2017-12-10T03:39:11.314Z,93.20
2017-12-10T03:41:38.766Z,93.20
2017-12-10T03:44:06.264Z,93.00
2017-12-10T03:46:33.775Z,93.00
2017-12-10T03:49:02.026Z,92.90
2017-12-10T03:51:29.495Z,92.90
2017-12-10T03:53:56.976Z,93.00
2017-12-10T03:56:24.464Z,92.60
2017-12-10T03:58:52.200Z,92.60
2017-12-10T04:01:19.653Z,92.80
2017-12-10T04:03:47.270Z,92.40
2017-12-10T04:06:15.511Z,92.30
2017-12-10T04:08:43.008Z,92.20
2017-12-10T04:11:11.286Z,92.10
2017-12-10T04:13:39.538Z,92.20
2017-12-10T04:16:07.815Z,92.50
2017-12-10T04:18:35.291Z,92.50
2017-12-10T04:21:02.767Z,92.70
2017-12-10T04:23:30.998Z,92.70
2017-12-10T04:25:58.475Z,92.70
2017-12-10T04:28:26.156Z,92.50
2017-12-10T04:30:54.396Z,92.70
2017-12-10T04:33:21.866Z,92.40
2017-12-10T04:35:49.345Z,92.30
2017-12-10T04:38:16.822Z,92.20
2017-12-10T04:40:44.433Z,92.30
2017-12-10T04:43:11.896Z,92.50
2017-12-10T04:45:39.386Z,92.30
2017-12-10T04:48:06.900Z,92.40
2017-12-10T04:50:34.371Z,92.90
2017-12-10T04:53:01.876Z,92.50
2017-12-10T04:55:30.107Z,92.50
2017-12-10T04:57:57.592Z,92.60
2017-12-10T05:00:25.826Z,92.60
2017-12-10T05:02:53.295Z,92.60
2017-12-10T05:05:20.800Z,92.70
2017-12-10T05:07:49.095Z,92.70
2017-12-10T05:10:16.554Z,92.70
2017-12-10T05:12:44.101Z,92.80
2017-12-10T05:15:11.607Z,92.80
2017-12-10T05:17:39.077Z,93.20
2017-12-10T05:20:06.637Z,93.60
2017-12-10T05:22:34.102Z,93.20
2017-12-10T05:25:01.722Z,93.40
2017-12-10T05:27:29.215Z,93.20
2017-12-10T05:29:56.733Z,93.30
2017-12-10T05:32:24.212Z,93.20
2017-12-10T05:34:51.798Z,93.10
2017-12-10T05:37:19.275Z,92.90
2017-12-10T05:39:47.540Z,92.80
2017-12-10T05:42:15.008Z,92.80
2017-12-10T05:44:43.258Z,92.50
2017-12-10T05:47:10.743Z,92.50
2017-12-10T05:49:39.036Z,92.20
2017-12-10T05:52:07.277Z,92.20
2017-12-10T05:54:34.734Z,92.20
2017-12-10T05:57:02.200Z,92.20
2017-12-10T05:59:29.673Z,92.30
2017-12-10T06:01:57.906Z,92.90
2017-12-10T06:04:25.415Z,92.50
2017-12-10T06:06:53.647Z,92.50
2017-12-10T06:09:21.137Z,92.50
2017-12-10T06:11:49.402Z,92.30
2017-12-10T06:14:17.654Z,92.80
2017-12-10T06:16:45.141Z,92.50
2017-12-10T06:19:12.614Z,92.30
2017-12-10T06:21:40.842Z,92.40
2017-12-10T06:24:08.345Z,92.30
2017-12-10T06:26:36.650Z,92.50
2017-12-10T06:29:04.130Z,92.40
2017-12-10T06:31:31.633Z,92.40
2017-12-10T06:33:59.881Z,92.60
2017-12-10T06:36:27.354Z,92.40
2017-12-10T06:38:54.923Z,92.30
2017-12-10T06:41:22.400Z,92.40
2017-12-10T06:43:50.622Z,92.30
2017-12-10T06:46:18.347Z,92.30
2017-12-10T06:48:46.601Z,92.40
2017-12-10T06:51:14.067Z,92.40
2017-12-10T06:53:42.308Z,92.30
2017-12-10T06:56:09.781Z,92.30
2017-12-10T06:58:37.250Z,92.40
2017-12-10T07:01:04.712Z,92.50
2017-12-10T07:03:32.231Z,92.30
2017-12-10T07:05:59.695Z,92.20
2017-12-10T07:08:27.302Z,92.10
2017-12-10T07:10:55.548Z,92.00
2017-12-10T07:13:23.072Z,92.00
2017-12-10T07:15:53.081Z,92.00
2017-12-10T07:18:20.590Z,91.90
2017-12-10T07:20:48.101Z,91.80
2017-12-10T07:23:15.915Z,91.70
2017-12-10T07:25:43.397Z,91.60
2017-12-10T07:28:11.698Z,91.70
2017-12-10T07:30:39.187Z,91.60
2017-12-10T07:33:06.751Z,91.40
2017-12-10T07:35:34.180Z,91.40
2017-12-10T07:38:01.753Z,91.40
2017-12-10T07:40:29.283Z,91.00
2017-12-10T07:42:56.764Z,90.90
2017-12-10T07:45:24.358Z,90.90
2017-12-10T07:47:51.858Z,90.60
2017-12-10T07:50:19.362Z,90.60
2017-12-10T07:52:46.846Z,90.50
2017-12-10T07:55:14.334Z,90.40
2017-12-10T07:57:41.833Z,89.60
2017-12-10T08:00:09.285Z,89.60
2017-12-10T08:02:36.801Z,89.40
2017-12-10T08:05:05.034Z,89.60
2017-12-10T08:07:32.545Z,89.60
2017-12-10T08:10:00.801Z,88.80
2017-12-10T08:12:28.325Z,88.80
2017-12-10T08:14:55.821Z,88.60
2017-12-10T08:17:23.311Z,87.40
2017-12-10T08:19:50.784Z,87.30
2017-12-10T08:22:18.252Z,86.70
2017-12-10T08:24:45.724Z,85.80
2017-12-10T08:27:13.299Z,85.40
2017-12-10T08:29:40.850Z,85.40
2017-12-10T08:32:08.322Z,85.80
2017-12-10T08:34:35.799Z,85.80
2017-12-10T08:37:04.032Z,85.80
2017-12-10T08:39:31.533Z,85.80
2017-12-10T08:41:59.745Z,86.70
2017-12-10T08:44:27.207Z,86.70
2017-12-10T08:46:54.688Z,86.60
2017-12-10T08:49:22.168Z,86.90
2017-12-10T08:51:49.651Z,87.00
2017-12-10T08:54:17.882Z,88.00
2017-12-10T08:56:45.363Z,88.00
2017-12-10T08:59:12.887Z,88.20
2017-12-10T09:01:40.365Z,88.60
2017-12-10T09:04:07.831Z,88.40
2017-12-10T09:06:35.298Z,88.60
2017-12-10T09:09:02.964Z,88.70
2017-12-10T09:11:30.450Z,89.70
2017-12-10T09:13:57.924Z,90.10
2017-12-10T09:16:25.395Z,90.40
2017-12-10T09:18:52.920Z,91.00
2017-12-10T09:21:21.174Z,91.90
2017-12-10T09:23:48.639Z,91.90
2017-12-10T09:26:16.902Z,92.30
2017-12-10T09:28:44.374Z,92.30
2017-12-10T09:31:12.764Z,93.10
2017-12-10T09:33:40.358Z,93.10
2017-12-10T09:36:07.834Z,93.50
2017-12-10T09:38:35.353Z,94.20
2017-12-10T09:41:02.832Z,94.90
2017-12-10T09:43:30.383Z,95.10
2017-12-10T09:45:57.839Z,96.00
2017-12-10T09:48:25.317Z,95.90
2017-12-10T09:50:52.794Z,95.90
2017-12-10T09:53:20.257Z,96.10
2017-12-10T09:55:47.747Z,96.70
2017-12-10T09:58:16.024Z,97.50
2017-12-10T10:00:44.264Z,97.50
2017-12-10T10:03:11.741Z,97.40
2017-12-10T10:05:39.212Z,97.80
2017-12-10T10:08:07.543Z,98.70
2017-12-10T10:10:35.015Z,98.70
2017-12-10T10:13:02.721Z,98.80
2017-12-10T10:15:30.958Z,99.00
2017-12-10T10:17:58.449Z,99.00
2017-12-10T10:20:26.748Z,99.40
2017-12-10T10:22:54.222Z,99.40
2017-12-10T10:25:21.760Z,99.60
2017-12-10T10:27:50.026Z,99.40
2017-12-10T10:30:18.280Z,99.70
2017-12-10T10:32:45.768Z,99.70
2017-12-10T10:35:14.050Z,99.40
2017-12-10T10:37:41.507Z,99.40
2017-12-10T10:40:09.729Z,99.90
2017-12-10T10:42:37.226Z,99.80
2017-12-10T10:45:05.474Z,99.80
2017-12-10T10:47:32.963Z,99.80
2017-12-10T10:50:01.201Z,99.30
2017-12-10T10:52:28.684Z,99.30
2017-12-10T10:54:56.146Z,99.50
2017-12-10T10:57:24.419Z,99.90
2017-12-10T10:59:51.872Z,99.80
2017-12-10T11:02:19.414Z,99.90
2017-12-10T11:04:47.024Z,99.90
2017-12-10T11:07:14.541Z,99.90
2017-12-10T11:09:42.049Z,99.90
2017-12-10T11:12:09.510Z,99.90
2017-12-10T11:14:37.063Z,99.90
2017-12-10T11:17:04.570Z,99.90
2017-12-10T11:19:32.183Z,99.90
2017-12-10T11:21:59.661Z,99.90
2017-12-10T11:24:27.216Z,99.90
2017-12-10T11:26:54.699Z,99.90
2017-12-10T11:29:22.187Z,99.90
2017-12-10T11:31:49.685Z,99.90
2017-12-10T11:34:17.334Z,99.90
2017-12-10T11:36:44.829Z,99.90
2017-12-10T11:39:12.334Z,99.90
2017-12-10T11:41:39.925Z,99.90
2017-12-10T11:44:07.467Z,99.90
2017-12-10T11:46:35.750Z,99.90
2017-12-10T11:49:03.998Z,99.90
2017-12-10T11:51:32.700Z,99.90
2017-12-10T11:54:00.947Z,99.90
2017-12-10T11:56:28.518Z,99.90
2017-12-10T11:58:55.981Z,99.90
2017-12-10T12:01:23.441Z,99.90
2017-12-10T12:03:50.906Z,99.90
2017-12-10T12:06:19.472Z,99.90
2017-12-10T12:08:48.472Z,99.90
2017-12-10T12:11:15.966Z,99.90
2017-12-10T12:13:43.567Z,99.90
2017-12-10T12:16:11.037Z,99.90
2017-12-10T12:18:38.540Z,99.90
2017-12-10T12:21:06.026Z,99.90
2017-12-10T12:23:33.571Z,99.80
2017-12-10T12:26:01.058Z,99.90
2017-12-10T12:28:28.541Z,99.90
2017-12-10T12:30:56.010Z,99.80
2017-12-10T12:33:24.258Z,99.70
2017-12-10T12:35:51.724Z,99.70
2017-12-10T12:38:19.997Z,98.70
2017-12-10T12:40:47.529Z,98.70
2017-12-10T12:43:15.107Z,98.40
2017-12-10T12:45:42.642Z,98.20
2017-12-10T12:48:10.988Z,98.00
2017-12-10T12:50:38.486Z,97.80
2017-12-10T12:53:06.019Z,97.80
2017-12-10T12:55:33.543Z,97.90
2017-12-10T12:58:01.154Z,97.70
2017-12-10T13:00:28.764Z,97.10
2017-12-10T13:02:56.302Z,96.90
2017-12-10T13:05:23.782Z,96.60
2017-12-10T13:07:51.259Z,97.10
2017-12-10T13:10:20.151Z,97.90
2017-12-10T13:12:49.459Z,98.00
2017-12-10T13:15:17.012Z,97.70
2017-12-10T13:17:45.768Z,97.60
2017-12-10T13:20:13.740Z,97.50
2017-12-10T13:22:41.761Z,97.60
2017-12-10T13:25:10.047Z,97.50
2017-12-10T13:27:38.655Z,97.10
2017-12-10T13:30:06.701Z,97.10
2017-12-10T13:32:34.763Z,97.50
2017-12-10T13:35:03.048Z,98.00
2017-12-10T13:37:31.464Z,97.90
2017-12-10T13:39:59.083Z,98.30
2017-12-10T13:42:26.716Z,98.70
2017-12-10T13:44:55.840Z,98.20
2017-12-10T13:47:23.790Z,98.20
2017-12-10T13:49:51.376Z,98.40
2017-12-10T13:52:18.951Z,99.90
2017-12-10T13:54:46.450Z,99.90
2017-12-10T13:57:14.120Z,99.90
2017-12-10T13:59:41.596Z,99.90
2017-12-10T14:02:09.925Z,99.90
2017-12-10T14:04:37.870Z,99.90
2017-12-10T14:07:05.356Z,99.90
2017-12-10T14:09:32.901Z,99.90
2017-12-10T14:12:00.454Z,99.90
2017-12-10T14:14:28.009Z,99.90
2017-12-10T14:16:55.467Z,99.90
2017-12-10T14:19:23.039Z,99.90
2017-12-10T14:21:50.499Z,99.90
2017-12-10T14:24:18.778Z,99.90
2017-12-10T14:26:47.098Z,99.90
2017-12-10T14:29:15.729Z,99.90
2017-12-10T14:31:43.888Z,99.90
2017-12-10T14:34:12.342Z,99.90
2017-12-10T14:36:40.575Z,99.90
2017-12-10T14:39:08.527Z,99.90
2017-12-10T14:41:36.155Z,99.90
2017-12-10T14:44:04.566Z,99.90
2017-12-10T14:46:32.110Z,99.90
2017-12-10T14:48:59.996Z,99.90
2017-12-10T14:51:27.497Z,99.90
2017-12-10T14:53:54.961Z,99.90
2017-12-10T14:56:22.555Z,99.90
2017-12-10T14:58:50.915Z,99.80
2017-12-10T15:01:19.980Z,99.20
2017-12-10T15:03:47.642Z,99.20
2017-12-10T15:06:15.480Z,99.00
2017-12-10T15:08:43.084Z,98.60
2017-12-10T15:11:11.623Z,98.70
2017-12-10T15:13:39.089Z,98.40
2017-12-10T15:16:06.609Z,98.60
2017-12-10T15:18:35.155Z,98.40
2017-12-10T15:21:02.730Z,98.40
2017-12-10T15:23:30.434Z,97.90
2017-12-10T15:25:57.973Z,97.80
2017-12-10T15:28:26.310Z,96.90
2017-12-10T15:30:53.857Z,96.90
2017-12-10T15:33:21.415Z,96.70
2017-12-10T15:35:48.925Z,96.10
2017-12-10T15:38:16.646Z,96.00
2017-12-10T15:40:44.290Z,95.60
2017-12-10T15:43:11.772Z,96.00
2017-12-10T15:45:39.413Z,95.60
2017-12-10T15:48:07.124Z,95.30
2017-12-10T15:50:35.411Z,95.20
2017-12-10T15:53:03.650Z,95.10
2017-12-10T15:55:31.171Z,94.90
2017-12-10T15:57:58.684Z,94.70
2017-12-10T16:00:26.192Z,94.70
2017-12-10T16:02:54.488Z,94.70
2017-12-10T16:05:22.018Z,94.70
2017-12-10T16:07:50.381Z,94.10
2017-12-10T16:10:17.951Z,94.10
2017-12-10T16:12:46.231Z,94.20
2017-12-10T16:15:14.480Z,94.10
2017-12-10T16:17:43.037Z,93.90
2017-12-10T16:20:11.564Z,93.70
2017-12-10T16:22:39.102Z,93.30
2017-12-10T16:25:06.787Z,92.80
2017-12-10T16:27:35.851Z,93.30
2017-12-10T16:30:03.708Z,93.30
2017-12-10T16:32:31.330Z,93.50
2017-12-10T16:34:59.560Z,93.60
2017-12-10T16:37:27.050Z,93.60
2017-12-10T16:39:56.171Z,93.90
2017-12-10T16:42:23.931Z,93.50
2017-12-10T16:44:51.424Z,93.70
2017-12-10T16:47:20.729Z,93.90
2017-12-10T16:49:48.782Z,93.90
2017-12-10T16:52:16.258Z,93.60
2017-12-10T16:54:43.719Z,93.70
2017-12-10T16:57:12.872Z,93.40
2017-12-10T16:59:42.619Z,92.90
2017-12-10T17:02:10.658Z,92.90
2017-12-10T17:04:38.247Z,92.50
2017-12-10T17:07:05.808Z,92.50
2017-12-10T17:09:34.601Z,92.90
2017-12-10T17:12:02.796Z,92.40
2017-12-10T17:14:30.374Z,92.70
2017-12-10T17:16:57.919Z,93.00
2017-12-10T17:19:25.645Z,92.90
2017-12-10T17:21:53.319Z,92.80
2017-12-10T17:24:20.874Z,93.10
2017-12-10T17:26:48.454Z,93.00
2017-12-10T17:29:15.969Z,93.10
2017-12-10T17:31:44.909Z,92.90
2017-12-10T17:34:12.456Z,93.10
2017-12-10T17:36:39.926Z,93.00
2017-12-10T17:39:07.539Z,93.10
2017-12-10T17:41:36.110Z,93.40
2017-12-10T17:44:03.674Z,93.50
2017-12-10T17:46:31.861Z,93.00
2017-12-10T17:48:59.423Z,93.10
2017-12-10T17:51:28.165Z,92.20
2017-12-10T17:53:55.694Z,92.20
2017-12-10T17:56:23.769Z,92.20
2017-12-10T17:58:52.767Z,92.20
2017-12-10T18:01:20.276Z,92.40
2017-12-10T18:03:49.010Z,91.70
2017-12-10T18:06:16.603Z,91.90
2017-12-10T18:08:44.327Z,92.00
2017-12-10T18:11:11.883Z,91.90
2017-12-10T18:13:39.492Z,92.00
2017-12-10T18:16:07.029Z,91.50
2017-12-10T18:18:34.735Z,92.20
2017-12-10T18:21:02.369Z,92.60
2017-12-10T18:23:29.958Z,93.30
2017-12-10T18:25:58.278Z,94.60
2017-12-10T18:28:26.742Z,94.60
2017-12-10T18:30:54.290Z,94.80
2017-12-10T18:33:21.800Z,95.40
2017-12-10T18:35:49.405Z,96.50
2017-12-10T18:38:18.173Z,96.50
2017-12-10T18:40:46.520Z,96.10
2017-12-10T18:43:14.115Z,96.10
2017-12-10T18:45:42.566Z,95.70
2017-12-10T18:48:10.332Z,95.70
2017-12-10T18:50:39.082Z,94.90
2017-12-10T18:53:06.757Z,95.20
2017-12-10T18:55:34.367Z,94.20
2017-12-10T18:58:04.041Z,94.20
2017-12-10T19:00:32.595Z,94.30
2017-12-10T19:03:00.121Z,93.40
2017-12-10T19:05:27.875Z,93.20
2017-12-10T19:07:56.258Z,93.60
2017-12-10T19:10:23.990Z,93.60
2017-12-10T19:12:51.842Z,93.40
2017-12-10T19:15:19.566Z,93.60
2017-12-10T19:17:48.304Z,93.60
2017-12-10T19:20:16.791Z,93.60
2017-12-10T19:22:44.334Z,93.50
2017-12-10T19:25:12.134Z,93.50
2017-12-10T19:27:40.721Z,93.90
2017-12-10T19:30:08.907Z,93.80
2017-12-10T19:32:37.293Z,94.10
2017-12-10T19:35:05.960Z,94.20
2017-12-10T19:37:34.039Z,94.20
2017-12-10T19:40:01.702Z,94.30
2017-12-10T19:42:29.236Z,94.20
2017-12-10T19:44:56.765Z,94.40
2017-12-10T19:47:25.205Z,94.40
2017-12-10T19:49:53.814Z,94.40
2017-12-10T19:52:22.522Z,94.50
2017-12-10T19:54:50.088Z,94.50
2017-12-10T19:57:17.633Z,94.40
2017-12-10T19:59:46.084Z,94.10
2017-12-10T20:02:14.992Z,94.00
2017-12-10T20:04:42.630Z,94.00
2017-12-10T20:07:10.128Z,93.90
2017-12-10T20:09:38.501Z,94.00
2017-12-10T20:12:05.984Z,94.00
2017-12-10T20:14:35.158Z,94.10
2017-12-10T20:17:04.049Z,95.50
2017-12-10T20:19:33.017Z,95.40
2017-12-10T20:22:00.599Z,95.40
2017-12-10T20:24:28.067Z,95.20
2017-12-10T20:26:56.437Z,95.00
2017-12-10T20:29:25.005Z,94.20
2017-12-10T20:31:52.925Z,94.20
2017-12-10T20:34:20.543Z,93.60
2017-12-10T20:36:50.282Z,93.10
2017-12-10T20:39:18.793Z,93.60
2017-12-10T20:41:46.885Z,93.70
2017-12-10T20:44:14.408Z,93.40
2017-12-10T20:46:41.901Z,93.30
2017-12-10T20:49:09.692Z,94.00
2017-12-10T20:51:38.428Z,93.90
2017-12-10T20:54:05.963Z,93.80
2017-12-10T20:56:34.328Z,95.40
2017-12-10T20:59:02.651Z,96.20
2017-12-10T21:01:30.187Z,96.20
2017-12-10T21:03:57.682Z,96.50
2017-12-10T21:06:25.248Z,97.50
2017-12-10T21:08:52.738Z,98.50
2017-12-10T21:11:20.996Z,99.90
2017-12-10T21:13:48.574Z,99.90
2017-12-10T21:16:16.178Z,99.90
2017-12-10T21:18:43.722Z,99.90
2017-12-10T21:21:11.231Z,99.90
2017-12-10T21:23:38.691Z,99.90
2017-12-10T21:26:07.022Z,99.90
2017-12-10T21:28:36.190Z,99.90
2017-12-10T21:31:03.773Z,99.90
2017-12-10T21:33:31.860Z,99.90
2017-12-10T21:35:59.732Z,99.90
2017-12-10T21:38:29.002Z,99.90
2017-12-10T21:40:56.656Z,99.90
2017-12-10T21:43:25.178Z,99.90
2017-12-10T21:45:53.798Z,99.90
2017-12-10T21:48:21.386Z,99.90
2017-12-10T21:50:51.077Z,99.90
2017-12-10T21:53:18.593Z,99.90
2017-12-10T21:55:46.050Z,99.90
2017-12-10T21:58:13.603Z,99.90
2017-12-10T22:00:41.250Z,99.90
2017-12-10T22:03:09.529Z,99.90
2017-12-10T22:05:38.669Z,99.90
2017-12-10T22:08:06.406Z,99.90
2017-12-10T22:10:34.042Z,99.90
2017-12-10T22:13:01.559Z,99.90
2017-12-10T22:15:30.606Z,99.90
2017-12-10T22:17:58.864Z,99.40
2017-12-10T22:20:26.491Z,99.40
2017-12-10T22:22:54.064Z,99.60
2017-12-10T22:25:22.012Z,99.70
2017-12-10T22:27:50.302Z,99.90
2017-12-10T22:30:17.828Z,99.90
2017-12-10T22:32:45.320Z,99.90
2017-12-10T22:35:13.148Z,99.90
2017-12-10T22:37:40.623Z,99.90
2017-12-10T22:40:10.395Z,99.90
2017-12-10T22:42:40.097Z,99.90
2017-12-10T22:45:08.407Z,99.90
2017-12-10T22:47:37.584Z,99.90
2017-12-10T22:50:05.842Z,99.90
2017-12-10T22:52:34.207Z,99.90
2017-12-10T22:55:01.676Z,99.90
2017-12-10T22:57:29.160Z,99.90
2017-12-10T22:59:56.667Z,99.90
2017-12-10T23:02:24.146Z,99.90
2017-12-10T23:04:51.616Z,99.90
2017-12-10T23:07:19.079Z,99.90
2017-12-10T23:09:53.240Z,99.90
2017-12-10T23:12:20.837Z,99.90
2017-12-10T23:14:49.228Z,99.90
2017-12-10T23:17:16.826Z,99.90
2017-12-10T23:19:44.313Z,99.90
2017-12-10T23:22:12.090Z,99.90
2017-12-10T23:24:39.614Z,99.90
2017-12-10T23:27:07.095Z,99.90
2017-12-10T23:29:34.791Z,99.90
2017-12-10T23:32:02.610Z,99.90
2017-12-10T23:34:31.087Z,99.90
2017-12-10T23:36:58.810Z,99.90
2017-12-10T23:39:26.283Z,99.90
2017-12-10T23:41:54.590Z,99.90
2017-12-10T23:44:22.229Z,99.90
2017-12-10T23:46:50.478Z,99.90
2017-12-10T23:49:18.087Z,99.90
2017-12-10T23:51:45.608Z,99.90
2017-12-10T23:54:13.124Z,99.90
2017-12-10T23:56:40.631Z,99.90
2017-12-10T23:59:08.164Z,99.90
